Time;durP1;ratioP1;P1;durP2;ratioP2;P2;SDS_P1;SDS_P2;PMS_P1;PMS_P2;Temp;Humidity;BMP_temperature;BMP_pressure;BME280_temperature;BME280_humidity;BME280_pressure;Samples;Min_cycle;Max_cycle;Signal;HPM_P1;HPM_P2
2022/09/22 00:01:40;;;;;;;15.70;11.20;;;;;;;17.08;55.65;99264.34;4959907;28;20062;-70
2022/09/22 00:04:09;;;;;;;20.35;12.75;;;;;;;17.07;55.21;99262.66;4959595;28;20054;-70
2022/09/22 00:06:38;;;;;;;21.63;13.15;;;;;;;17.08;55.52;99266.19;4975131;28;20489;-69
2022/09/22 00:09:10;;;;;;;20.70;14.32;;;;;;;17.10;55.25;99267.63;4974140;28;20039;-70
2022/09/22 00:11:39;;;;;;;22.45;14.45;;;;;;;17.09;55.52;99265.97;4958046;28;20050;-70
2022/09/22 00:14:16;;;;;;;19.58;13.35;;;;;;;17.18;55.14;99269.25;4957947;28;20051;-69
2022/09/22 00:16:47;;;;;;;21.40;13.95;;;;;;;17.05;55.49;99263.91;4941676;28;20078;-70
2022/09/22 00:19:19;;;;;;;28.65;18.00;;;;;;;16.99;55.61;99265.56;4957833;28;20089;-69
2022/09/22 00:21:46;;;;;;;25.05;14.63;;;;;;;16.62;55.76;99204.53;4973426;28;20137;-72
2022/09/22 00:24:15;;;;;;;20.27;14.80;;;;;;;16.91;55.43;99264.97;4973729;28;20438;-70
2022/09/22 00:26:42;;;;;;;18.90;12.82;;;;;;;16.98;55.37;99268.44;4974012;28;20038;-70
2022/09/22 00:29:08;;;;;;;19.48;12.75;;;;;;;16.95;55.65;99272.38;4974056;28;20066;-70
2022/09/22 00:31:38;;;;;;;21.00;13.48;;;;;;;16.91;55.83;99263.09;4957553;28;20477;-69
2022/09/22 00:34:05;;;;;;;17.05;12.68;;;;;;;16.70;55.85;99244.53;4957679;28;20485;-69
2022/09/22 00:36:31;;;;;;;17.40;12.23;;;;;;;16.84;55.61;99252.38;4957543;28;20043;-70
2022/09/22 00:38:57;;;;;;;15.48;11.77;;;;;;;16.82;55.69;99265.16;4941181;28;20060;-70
2022/09/22 00:41:30;;;;;;;19.70;13.27;;;;;;;16.96;55.48;99265.16;4957309;28;20058;-70
2022/09/22 00:44:14;;;;;;;21.38;13.52;;;;;;;17.11;55.20;99263.09;4973467;28;20046;-69
2022/09/22 00:46:42;;;;;;;22.20;13.82;;;;;;;16.90;55.55;99255.28;4958068;28;20050;-69
2022/09/22 00:49:08;;;;;;;26.77;15.13;;;;;;;16.91;55.67;99267.63;4958233;28;20060;-69
2022/09/22 00:51:37;;;;;;;22.17;13.25;;;;;;;17.00;55.59;99263.72;4958344;28;20129;-69
2022/09/22 00:54:05;;;;;;;18.08;12.77;;;;;;;17.11;55.38;99263.91;4973508;28;20425;-69
2022/09/22 00:56:35;;;;;;;19.30;13.27;;;;;;;17.14;55.26;99257.28;4956931;28;20047;-71
2022/09/22 00:59:06;;;;;;;20.60;12.75;;;;;;;17.20;54.93;99269.88;4989316;28;20042;-70
2022/09/22 01:01:35;;;;;;;16.42;12.73;;;;;;;16.90;55.10;99258.75;4942053;28;20162;-69
2022/09/22 01:04:02;;;;;;;19.77;13.95;;;;;;;16.97;55.25;99243.50;4922449;29;20430;-69
2022/09/22 01:06:28;;;;;;;19.40;13.73;;;;;;;16.86;55.25;99241.44;4938408;29;20075;-70
2022/09/22 01:08:55;;;;;;;19.45;13.30;;;;;;;17.12;55.08;99270.91;4969790;28;20174;-70
2022/09/22 01:11:22;;;;;;;18.48;12.63;;;;;;;17.00;54.89;99275.28;4937775;29;20054;-70
2022/09/22 01:14:06;;;;;;;20.10;13.32;;;;;;;17.49;53.97;99254.16;4937279;29;20046;-70
2022/09/22 01:16:43;;;;;;;20.17;13.50;;;;;;;17.58;53.79;99269.00;4937122;29;20051;-70
2022/09/22 01:19:46;;;;;;;20.90;13.23;;;;;;;17.64;53.69;99278.03;4938052;29;20043;-70
2022/09/22 01:22:49;;;;;;;18.52;12.52;;;;;;;17.69;53.51;99279.06;4937699;28;20044;-70
2022/09/22 01:25:37;;;;;;;18.48;13.55;;;;;;;17.59;53.18;99251.03;4936186;29;20055;-71
2022/09/22 01:28:14;;;;;;;17.45;13.75;;;;;;;17.34;53.90;99264.28;4936742;29;20142;-71
2022/09/22 01:30:48;;;;;;;19.02;13.18;;;;;;;17.33;53.66;99273.34;4937221;29;20078;-70
2022/09/22 01:33:26;;;;;;;22.08;12.80;;;;;;;17.60;53.67;99268.78;4921355;29;20046;-75
2022/09/22 01:36:11;;;;;;;16.35;12.23;;;;;;;17.66;53.58;99266.06;4935882;29;20043;-70
2022/09/22 01:38:55;;;;;;;17.38;12.35;;;;;;;17.24;54.08;99265.72;4936252;29;20050;-70
2022/09/22 01:41:33;;;;;;;20.10;12.60;;;;;;;17.62;53.62;99258.66;4936126;29;20043;-70
2022/09/22 01:44:02;;;;;;;16.45;12.18;;;;;;;17.48;53.76;99262.41;4952304;28;20051;-71
2022/09/22 01:46:39;;;;;;;16.45;12.02;;;;;;;17.42;53.85;99257.84;4937179;29;20054;-70
2022/09/22 01:49:07;;;;;;;21.02;14.13;;;;;;;17.43;53.78;99256.81;4937214;29;20523;-70
2022/09/22 01:51:50;;;;;;;19.45;13.40;;;;;;;17.34;53.60;99244.66;4953690;29;20047;-70
2022/09/22 01:54:19;;;;;;;14.82;11.30;;;;;;;17.28;54.07;99258.94;4936773;29;20506;-75
2022/09/22 01:56:48;;;;;;;15.27;11.23;;;;;;;17.31;54.19;99271.91;4921276;29;20039;-71
2022/09/22 01:59:16;;;;;;;15.15;11.18;;;;;;;17.26;54.13;99266.34;4924473;29;20563;-70
2022/09/22 02:01:49;;;;;;;14.63;10.70;;;;;;;17.31;53.67;99269.25;4956428;28;20054;-70
2022/09/22 02:04:29;;;;;;;14.73;11.02;;;;;;;17.30;53.91;99275.66;4921688;28;20534;-70
2022/09/22 02:07:00;;;;;;;16.95;10.27;;;;;;;17.30;54.25;99273.78;4936766;29;20105;-70
2022/09/22 02:09:28;;;;;;;16.77;10.77;;;;;;;17.14;54.30;99273.41;4936365;29;20079;-70
2022/09/22 02:11:55;;;;;;;14.60;10.60;;;;;;;17.16;54.22;99265.97;4936252;29;20055;-70
2022/09/22 02:14:22;;;;;;;16.65;11.07;;;;;;;17.20;54.19;99277.94;4936395;29;20468;-71
2022/09/22 02:16:48;;;;;;;15.73;10.32;;;;;;;17.14;54.25;99265.34;4936405;29;20142;-70
2022/09/22 02:19:20;;;;;;;15.68;10.35;;;;;;;17.31;54.06;99263.88;4936903;29;20074;-71
2022/09/22 02:21:47;;;;;;;14.55;10.82;;;;;;;17.10;54.28;99251.50;4936994;29;20069;-68
2022/09/22 02:24:36;;;;;;;17.90;10.98;;;;;;;17.42;53.17;99247.91;4952742;28;20394;-68
2022/09/22 02:27:25;;;;;;;18.92;11.10;;;;;;;17.56;53.31;99251.44;4968369;28;20102;-68
2022/09/22 02:30:11;;;;;;;16.20;10.75;;;;;;;17.61;53.15;99270.41;4952514;28;20051;-70
2022/09/22 02:32:41;;;;;;;16.00;11.18;;;;;;;17.55;53.19;99264.03;4935850;29;20158;-69
2022/09/22 02:35:09;;;;;;;17.45;10.73;;;;;;;17.51;53.39;99260.16;4940160;28;20070;-69
2022/09/22 02:37:42;;;;;;;14.68;10.85;;;;;;;17.55;53.53;99264.03;4941093;29;20074;-69
2022/09/22 02:40:23;;;;;;;19.05;12.40;;;;;;;17.14;53.18;99246.56;4924355;29;20518;-72
2022/09/22 02:42:54;;;;;;;19.63;11.25;;;;;;;17.49;53.37;99264.88;4940323;29;20043;-74
2022/09/22 02:45:26;;;;;;;17.35;11.13;;;;;;;17.37;53.63;99257.66;4955317;28;20073;-70
2022/09/22 02:47:56;;;;;;;14.73;11.52;;;;;;;17.19;54.05;99252.94;4954930;28;20485;-70
2022/09/22 02:50:23;;;;;;;16.90;11.97;;;;;;;17.14;54.17;99262.66;4939439;29;20122;-70
2022/09/22 02:53:17;;;;;;;18.50;11.45;;;;;;;17.25;53.83;99264.72;4954858;29;20043;-71
2022/09/22 02:55:43;;;;;;;21.75;13.32;;;;;;;17.22;54.05;99276.66;4938353;28;20070;-70
2022/09/22 02:58:10;;;;;;;18.35;12.82;;;;;;;16.81;54.34;99247.44;4954672;28;20090;-70
2022/09/22 03:00:36;;;;;;;19.08;13.23;;;;;;;16.98;54.21;99280.00;4938781;29;20154;-70
2022/09/22 03:03:03;;;;;;;17.90;12.13;;;;;;;17.05;54.20;99280.84;4940064;29;20554;-69
2022/09/22 03:05:28;;;;;;;16.70;11.95;;;;;;;16.97;54.22;99290.94;4956013;29;20505;-69
2022/09/22 03:07:54;;;;;;;14.73;11.23;;;;;;;17.00;54.16;99294.06;4971906;28;20054;-70
2022/09/22 03:10:20;;;;;;;15.23;11.43;;;;;;;16.98;54.34;99282.69;4939857;29;20047;-73
2022/09/22 03:12:46;;;;;;;18.80;11.65;;;;;;;16.60;55.21;99293.22;4924015;28;20050;-70
2022/09/22 03:15:14;;;;;;;18.70;11.73;;;;;;;16.62;55.77;99285.78;4939927;29;20146;-70
2022/09/22 03:17:41;;;;;;;23.20;11.90;;;;;;;16.56;55.26;99300.00;4939863;29;20054;-69
2022/09/22 03:20:09;;;;;;;17.50;11.18;;;;;;;16.76;55.24;99290.13;4923871;29;20047;-70
2022/09/22 03:22:37;;;;;;;16.88;10.98;;;;;;;16.82;55.16;99291.97;4955829;28;20059;-69
2022/09/22 03:25:05;;;;;;;13.90;10.75;;;;;;;16.70;55.24;99292.78;4938785;29;20486;-70
2022/09/22 03:27:31;;;;;;;18.88;11.35;;;;;;;16.57;55.14;99290.94;4939585;28;20475;-69
2022/09/22 03:29:57;;;;;;;18.40;12.30;;;;;;;16.76;54.90;99289.28;4923788;29;20051;-70
2022/09/22 03:32:22;;;;;;;19.20;12.60;;;;;;;16.61;54.88;99296.72;4923348;28;20043;-70
2022/09/22 03:34:49;;;;;;;17.27;11.23;;;;;;;16.71;54.68;99299.81;4939556;29;20058;-70
2022/09/22 03:37:15;;;;;;;16.85;10.93;;;;;;;16.74;54.48;99286.81;4907797;29;20051;-68
2022/09/22 03:39:41;;;;;;;19.05;10.98;;;;;;;16.89;54.33;99302.72;4971246;28;21019;-68
2022/09/22 03:42:07;;;;;;;15.13;11.00;;;;;;;16.93;54.22;99298.56;4939741;28;20039;-68
2022/09/22 03:44:33;;;;;;;21.90;12.57;;;;;;;16.96;54.20;99308.91;4924374;29;20051;-70
2022/09/22 03:46:59;;;;;;;20.92;11.70;;;;;;;16.99;53.93;99305.78;4939549;28;20418;-70
2022/09/22 03:49:25;;;;;;;19.27;11.75;;;;;;;17.07;53.75;99302.91;4907771;29;20257;-70
2022/09/22 03:51:52;;;;;;;17.17;11.57;;;;;;;17.12;53.92;99302.28;4925685;29;20115;-72
2022/09/22 03:54:19;;;;;;;20.90;11.20;;;;;;;17.14;53.92;99295.69;4956243;28;20442;-73
2022/09/22 03:56:45;;;;;;;22.48;11.38;;;;;;;17.08;53.60;99301.06;4971969;28;20050;-71
2022/09/22 03:59:11;;;;;;;16.02;11.32;;;;;;;17.04;54.03;99300.66;4928214;28;20394;-72
2022/09/22 04:01:38;;;;;;;15.38;11.63;;;;;;;17.09;53.97;99305.38;4959228;28;20065;-73
2022/09/22 04:04:04;;;;;;;17.42;11.55;;;;;;;17.08;53.85;99290.34;4973629;28;20047;-72
2022/09/22 04:06:30;;;;;;;15.10;11.23;;;;;;;17.25;53.35;99303.09;4923856;29;20474;-74
2022/09/22 04:08:56;;;;;;;20.67;11.90;;;;;;;17.17;53.60;99300.66;4954908;29;20074;-73
2022/09/22 04:11:23;;;;;;;17.30;11.95;;;;;;;17.12;53.61;99296.91;4954941;28;20047;-71
2022/09/22 04:13:49;;;;;;;18.55;12.05;;;;;;;17.25;53.27;99302.28;4955990;28;20043;-71
2022/09/22 04:16:15;;;;;;;16.33;12.07;;;;;;;17.20;53.46;99300.22;4955912;28;20194;-72
2022/09/22 04:18:42;;;;;;;18.42;12.68;;;;;;;17.08;53.48;99290.34;4939772;28;20078;-71
2022/09/22 04:21:08;;;;;;;17.50;12.63;;;;;;;17.20;53.30;99294.88;4939124;29;20070;-71
2022/09/22 04:23:35;;;;;;;19.50;12.48;;;;;;;17.25;52.96;99302.28;4954642;28;20050;-71
2022/09/22 04:26:01;;;;;;;20.98;13.20;;;;;;;17.29;52.97;99308.88;4954622;28;20514;-71
2022/09/22 04:28:28;;;;;;;21.15;13.32;;;;;;;17.31;52.57;99304.97;4954250;28;20058;-72
2022/09/22 04:30:54;;;;;;;17.23;12.70;;;;;;;17.26;52.92;99312.81;4938998;28;20039;-73
2022/09/22 04:33:19;;;;;;;18.42;12.45;;;;;;;17.27;53.21;99305.56;4923525;29;20101;-73
2022/09/22 04:35:48;;;;;;;20.17;12.73;;;;;;;17.48;52.89;99302.69;4924299;29;20043;-71
2022/09/22 04:38:15;;;;;;;21.35;12.80;;;;;;;17.41;52.68;99312.56;4939644;29;20054;-69
2022/09/22 04:40:41;;;;;;;21.08;12.93;;;;;;;17.46;52.60;99312.81;4955192;28;20043;-71
2022/09/22 04:43:07;;;;;;;17.02;12.82;;;;;;;17.29;52.88;99315.06;4951295;28;20719;-72
2022/09/22 04:45:33;;;;;;;17.40;12.23;;;;;;;17.16;52.88;99277.50;4936478;29;20051;-69
2022/09/22 04:47:59;;;;;;;15.48;11.27;;;;;;;17.23;52.93;99312.41;4953471;28;20171;-71
2022/09/22 04:50:27;;;;;;;15.38;11.48;;;;;;;17.11;53.13;99314.91;4921545;29;20504;-71
2022/09/22 04:52:55;;;;;;;19.27;12.43;;;;;;;17.13;53.34;99315.50;4937801;29;20059;-70
2022/09/22 04:55:22;;;;;;;17.75;11.52;;;;;;;17.16;53.16;99315.06;4938460;29;20047;-71
2022/09/22 04:57:48;;;;;;;17.08;10.65;;;;;;;16.98;53.74;99311.38;4955626;28;20389;-70
2022/09/22 05:00:15;;;;;;;17.45;11.10;;;;;;;17.06;53.96;99319.22;4952089;28;20062;-71
2022/09/22 05:02:43;;;;;;;20.35;10.48;;;;;;;17.02;53.55;99312.63;4954179;28;20043;-69
2022/09/22 05:05:10;;;;;;;22.73;10.93;;;;;;;17.23;53.29;99312.41;4954539;28;20133;-72
2022/09/22 05:07:44;;;;;;;23.42;10.90;;;;;;;17.34;53.27;99312.59;4936838;29;20039;-70
2022/09/22 05:10:11;;;;;;;18.27;10.25;;;;;;;17.25;53.14;99319.19;4934880;29;20061;-70
2022/09/22 05:12:40;;;;;;;13.20;9.35;;;;;;;17.27;52.96;99289.47;4933767;29;20058;-70
2022/09/22 05:15:08;;;;;;;16.00;9.88;;;;;;;17.42;53.05;99314.25;4935173;29;20043;-70
2022/09/22 05:17:35;;;;;;;15.35;10.63;;;;;;;16.91;53.90;99297.16;4951290;28;20043;-71
2022/09/22 05:20:04;;;;;;;21.50;10.25;;;;;;;17.39;53.22;99303.91;4951941;28;20070;-70
2022/09/22 05:22:31;;;;;;;14.07;10.10;;;;;;;17.01;54.02;99294.84;4969433;28;20054;-72
2022/09/22 05:24:57;;;;;;;18.85;11.90;;;;;;;16.84;54.38;99292.59;4953087;28;20051;-71
2022/09/22 05:27:25;;;;;;;17.33;11.23;;;;;;;17.24;53.45;99296.09;4921215;29;20108;-69
2022/09/22 05:29:51;;;;;;;14.23;10.32;;;;;;;17.25;53.33;99295.03;4937242;28;20126;-70
2022/09/22 05:32:16;;;;;;;16.15;10.50;;;;;;;17.44;52.87;99299.59;4920630;28;20205;-69
2022/09/22 05:34:42;;;;;;;13.68;10.18;;;;;;;17.33;52.78;99277.91;4937267;29;20051;-70
2022/09/22 05:37:08;;;;;;;16.65;10.70;;;;;;;17.62;52.18;99298.94;4936519;29;20047;-71
2022/09/22 05:39:33;;;;;;;16.98;10.80;;;;;;;17.69;52.11;99305.94;4968425;28;20074;-70
2022/09/22 05:41:59;;;;;;;18.85;12.57;;;;;;;17.71;51.72;99298.47;4920381;29;20043;-71
2022/09/22 05:44:25;;;;;;;18.45;11.98;;;;;;;17.90;51.66;99310.19;4952008;28;20141;-72
2022/09/22 05:46:51;;;;;;;18.52;12.50;;;;;;;18.03;51.80;99319.03;4920374;28;20049;-69
2022/09/22 05:49:16;;;;;;;22.33;13.88;;;;;;;18.12;51.47;99306.19;4952964;28;20043;-70
2022/09/22 05:51:42;;;;;;;20.13;12.27;;;;;;;18.18;50.88;99321.44;4920190;29;20466;-70
2022/09/22 05:54:11;;;;;;;19.35;12.25;;;;;;;18.14;50.61;99307.59;4920103;29;20113;-71
2022/09/22 05:56:36;;;;;;;18.00;12.40;;;;;;;17.93;50.95;99286.41;4936596;29;20051;-71
2022/09/22 05:59:03;;;;;;;16.98;12.20;;;;;;;18.07;51.01;99314.03;4919823;29;20075;-70
2022/09/22 06:01:29;;;;;;;18.25;11.48;;;;;;;18.07;50.59;99312.19;4967533;28;20152;-70
2022/09/22 06:04:01;;;;;;;14.73;10.88;;;;;;;18.04;50.87;99307.25;4951635;28;20054;-71
2022/09/22 06:06:27;;;;;;;17.17;11.05;;;;;;;17.91;50.93;99288.47;4951917;28;20051;-69
2022/09/22 06:08:53;;;;;;;17.20;11.48;;;;;;;18.13;50.42;99314.03;4968175;28;20047;-70
2022/09/22 06:11:18;;;;;;;26.67;14.93;;;;;;;18.12;50.43;99306.19;4935179;29;20047;-71
2022/09/22 06:13:44;;;;;;;27.67;15.75;;;;;;;18.19;50.46;99306.94;4919024;29;20043;-70
2022/09/22 06:16:11;;;;;;;26.25;14.85;;;;;;;18.27;50.07;99304.84;4935060;29;20145;-71
2022/09/22 06:18:36;;;;;;;34.10;16.88;;;;;;;18.27;49.97;99310.22;4934287;29;20515;-72
2022/09/22 06:21:02;;;;;;;29.30;17.15;;;;;;;18.33;50.11;99304.00;4936503;29;20061;-72
2022/09/22 06:23:28;;;;;;;26.58;14.30;;;;;;;18.49;50.00;99318.81;4980100;28;20311;-71
2022/09/22 06:25:57;;;;;;;24.95;15.20;;;;;;;18.75;49.46;99323.19;4971371;28;20050;-73
2022/09/22 06:28:23;;;;;;;18.90;11.57;;;;;;;18.37;49.52;99326.75;4970584;28;20042;-73
2022/09/22 06:30:50;;;;;;;17.75;11.20;;;;;;;18.39;49.42;99321.97;4903500;29;20403;-71
2022/09/22 06:33:17;;;;;;;16.67;10.82;;;;;;;18.48;49.18;99293.78;4934583;29;20227;-72
2022/09/22 06:35:44;;;;;;;14.02;9.48;;;;;;;18.67;49.08;99310.84;4939937;29;20043;-73
2022/09/22 06:38:13;;;;;;;11.55;8.80;;;;;;;19.02;48.19;99320.09;4956286;28;20516;-72
2022/09/22 06:40:40;;;;;;;15.40;8.90;;;;;;;18.94;47.93;99311.47;4941560;29;20193;-73
2022/09/22 06:43:13;;;;;;;10.55;7.90;;;;;;;19.05;47.41;99310.78;4941045;29;20039;-73
2022/09/22 06:45:40;;;;;;;15.93;8.38;;;;;;;19.22;47.51;99314.56;4949294;28;20047;-72
2022/09/22 06:48:08;;;;;;;13.02;8.02;;;;;;;19.24;47.10;99301.69;4950564;28;20479;-72
2022/09/22 06:50:34;;;;;;;9.70;7.13;;;;;;;19.19;46.88;99304.22;4920285;29;20043;-73
2022/09/22 06:53:06;;;;;;;8.32;6.95;;;;;;;19.46;46.72;99328.03;4952193;28;20394;-71
2022/09/22 06:55:32;;;;;;;10.50;7.35;;;;;;;19.41;46.79;99325.16;4952157;28;20059;-71
2022/09/22 06:58:01;;;;;;;9.55;7.38;;;;;;;19.33;46.57;99332.69;4952328;28;20047;-69
2022/09/22 07:00:32;;;;;;;9.82;7.28;;;;;;;19.12;47.23;99316.91;4945740;28;20059;-73
2022/09/22 07:03:05;;;;;;;;;;;;;;;19.43;46.62;99330.34;4951788;28;20085;-72
2022/09/22 07:05:31;;;;;;;10.23;7.60;;;;;;;18.97;47.66;99327.19;4951191;28;19925;-74
2022/09/22 07:07:57;;;;;;;10.02;7.70;;;;;;;18.64;47.85;99321.19;4934721;29;20489;-72
2022/09/22 07:10:22;;;;;;;12.50;7.50;;;;;;;18.41;48.18;99321.78;4934658;29;20035;-74
2022/09/22 07:12:48;;;;;;;9.25;7.38;;;;;;;18.56;48.16;99329.56;4950608;28;20374;-74
2022/09/22 07:15:14;;;;;;;12.80;8.07;;;;;;;18.51;48.24;99327.50;4934714;29;20513;-73
2022/09/22 07:17:40;;;;;;;13.02;8.23;;;;;;;18.72;48.14;99321.78;4935466;28;20039;-75
2022/09/22 07:20:09;;;;;;;11.80;9.20;;;;;;;18.59;48.41;99319.16;4951002;28;20043;-75
2022/09/22 07:22:38;;;;;;;12.20;8.93;;;;;;;18.75;48.23;99328.59;4919873;29;20057;-74
2022/09/22 07:25:07;;;;;;;13.40;8.15;;;;;;;19.14;47.39;99328.28;4939089;29;20058;-75
2022/09/22 07:27:34;;;;;;;13.40;7.53;;;;;;;19.05;47.30;99330.41;4922716;29;20654;-76
2022/09/22 07:30:02;;;;;;;9.23;7.47;;;;;;;18.97;47.65;99340.66;4954376;28;20047;-73
2022/09/22 07:32:34;;;;;;;17.00;8.37;;;;;;;19.23;46.87;99338.56;4939673;28;20405;-74
2022/09/22 07:35:00;;;;;;;15.68;8.35;;;;;;;19.00;47.32;99334.81;4935515;29;20155;-72
2022/09/22 07:37:28;;;;;;;11.30;7.90;;;;;;;19.00;47.64;99345.59;4952650;28;20092;-72
2022/09/22 07:39:55;;;;;;;14.98;8.02;;;;;;;18.99;47.51;99344.75;4936151;29;20138;-72
2022/09/22 07:42:21;;;;;;;13.27;8.48;;;;;;;18.65;48.42;99344.41;4918996;29;20048;-73
2022/09/22 07:50:18;;;;;;;12.50;8.35;;;;;;;18.76;47.88;99335.63;4934614;29;20086;-73
2022/09/22 07:52:50;;;;;;;11.30;7.00;;;;;;;19.25;46.96;99336.47;4935693;29;20047;-73
2022/09/22 07:55:15;;;;;;;11.05;8.20;;;;;;;19.02;47.08;99340.81;4953067;28;20107;-72
2022/09/22 07:57:41;;;;;;;12.93;7.28;;;;;;;19.05;47.12;99335.78;4966480;28;20478;-72
2022/09/22 08:00:07;;;;;;;11.40;7.53;;;;;;;19.24;46.57;99345.59;4954796;28;20062;-73
2022/09/22 08:02:39;;;;;;;13.98;8.05;;;;;;;19.21;46.77;99335.25;4958224;28;20402;-73
2022/09/22 08:05:08;;;;;;;12.45;8.18;;;;;;;19.25;46.60;99351.81;4941348;28;20564;-72
2022/09/22 08:07:36;;;;;;;11.63;7.18;;;;;;;19.23;46.32;99343.13;4957606;28;20142;-72
2022/09/22 08:10:02;;;;;;;9.20;7.45;;;;;;;19.37;46.01;99339.31;4941642;28;20034;-73
2022/09/22 08:12:29;;;;;;;14.77;8.15;;;;;;;19.39;46.53;99334.53;4938695;28;20224;-70
2022/09/22 08:14:56;;;;;;;10.90;8.18;;;;;;;19.32;46.36;99341.81;4946602;28;20462;-73
2022/09/22 08:17:23;;;;;;;12.23;8.18;;;;;;;18.44;47.33;99316.78;4937608;28;20102;-72
2022/09/22 08:19:49;;;;;;;16.10;8.70;;;;;;;18.63;47.95;99319.56;4921584;28;20170;-71
2022/09/22 08:22:16;;;;;;;10.43;7.95;;;;;;;18.91;47.27;99330.75;4923604;28;20335;-71
2022/09/22 08:24:44;;;;;;;15.27;8.07;;;;;;;19.31;46.73;99341.00;4931021;29;20042;-71
2022/09/22 08:27:10;;;;;;;14.25;7.82;;;;;;;19.82;45.41;99332.59;4952797;28;20062;-70
2022/09/22 08:29:37;;;;;;;10.13;7.57;;;;;;;20.04;44.67;99339.19;4937747;28;20053;-71
2022/09/22 08:32:02;;;;;;;12.73;7.30;;;;;;;20.32;44.22;99352.16;4960776;28;20445;-70
2022/09/22 08:34:28;;;;;;;10.35;7.05;;;;;;;20.38;43.66;99353.94;4933762;28;20047;-72
2022/09/22 08:36:54;;;;;;;12.43;7.75;;;;;;;20.28;44.04;99361.75;4953891;28;20039;-71
2022/09/22 08:39:20;;;;;;;11.68;8.73;;;;;;;20.01;44.61;99361.22;4945218;28;20039;-71
2022/09/22 08:42:20;;;;;;;16.30;8.05;;;;;;;20.12;45.05;99363.16;4945688;28;20117;-71
2022/09/22 08:44:49;;;;;;;14.30;8.02;;;;;;;19.70;45.92;99366.72;4922629;28;20055;-72
2022/09/22 08:53:08;;;;;;;10.07;7.82;;;;;;;20.03;45.16;99357.22;4952809;28;20457;-71
2022/09/22 08:55:41;;;;;;;10.95;8.13;;;;;;;20.10;45.04;99344.50;4945614;28;20130;-72
2022/09/22 08:58:20;;;;;;;11.30;8.27;;;;;;;19.71;45.12;99363.81;4947057;28;20053;-72
2022/09/22 09:00:55;;;;;;;13.32;8.05;;;;;;;20.04;45.23;99361.59;4927424;29;20051;-72
2022/09/22 09:03:49;;;;;;;11.45;8.20;;;;;;;20.35;44.70;99371.41;4946981;28;20044;-72
2022/09/22 09:06:44;;;;;;;13.55;8.85;;;;;;;20.32;44.69;99362.94;4954504;28;20145;-71
2022/09/22 09:09:15;;;;;;;12.85;8.88;;;;;;;20.17;44.86;99355.25;4940789;28;20089;-72
2022/09/22 09:12:00;;;;;;;12.43;9.18;;;;;;;19.82;45.53;99364.94;4938599;28;20078;-71
2022/09/22 09:14:57;;;;;;;13.43;9.13;;;;;;;20.07;45.20;99363.84;4933115;29;20090;-72
2022/09/22 09:17:30;;;;;;;17.38;10.95;;;;;;;19.92;45.55;99341.81;4954114;28;20059;-71
2022/09/22 09:20:28;;;;;;;14.77;9.38;;;;;;;20.02;45.23;99363.69;4941938;28;20333;-71
2022/09/22 09:22:55;;;;;;;12.75;9.63;;;;;;;19.85;45.26;99367.22;4941253;28;20074;-73
2022/09/22 09:25:40;;;;;;;14.43;9.82;;;;;;;20.14;44.78;99362.97;4958657;28;20102;-72
2022/09/22 09:28:45;;;;;;;13.50;10.25;;;;;;;20.25;44.59;99365.72;4889760;29;20138;-71
2022/09/22 09:31:17;;;;;;;12.82;8.82;;;;;;;20.49;43.62;99359.41;4915791;29;20398;-72
2022/09/22 09:34:01;;;;;;;12.40;8.05;;;;;;;20.92;42.85;99367.28;4933415;29;20039;-72
2022/09/22 09:36:39;;;;;;;13.40;8.05;;;;;;;21.40;41.63;99365.28;4932438;29;20062;-71
2022/09/22 09:39:14;;;;;;;10.75;7.80;;;;;;;21.43;40.92;99351.31;4933590;29;20171;-72
2022/09/22 09:41:42;;;;;;;14.02;8.35;;;;;;;21.45;41.23;99368.91;4901282;29;20474;-71
2022/09/22 09:44:17;;;;;;;13.52;7.88;;;;;;;21.53;40.87;99375.84;4917459;29;20044;-72
2022/09/22 09:47:06;;;;;;;11.57;7.50;;;;;;;21.82;39.94;99383.03;4932290;29;20529;-71
2022/09/22 09:49:32;;;;;;;10.52;7.18;;;;;;;21.65;40.43;99374.81;4915289;29;20059;-71
2022/09/22 09:52:03;;;;;;;8.77;7.05;;;;;;;21.64;40.09;99383.97;4933248;29;20086;-71
2022/09/22 09:54:29;;;;;;;8.98;7.30;;;;;;;21.18;40.75;99367.72;4917628;29;20043;-71
2022/09/22 09:57:05;;;;;;;8.18;7.03;;;;;;;21.15;40.37;99353.84;4932804;29;20463;-72
2022/09/22 10:02:19;;;;;;;9.75;6.45;;;;;;;21.33;40.28;99372.66;4916812;29;20074;-72
2022/09/22 10:04:59;;;;;;;8.63;6.57;;;;;;;21.59;39.53;99385.72;4917423;29;20115;-71
2022/09/22 10:07:27;;;;;;;11.65;6.30;;;;;;;21.64;39.60;99375.03;4949470;28;20451;-71
2022/09/22 10:09:54;;;;;;;10.88;5.30;;;;;;;21.88;39.28;99356.97;4917348;29;20078;-72
2022/09/22 10:12:21;;;;;;;7.53;5.88;;;;;;;22.04;39.35;99365.16;4932030;29;20043;-72
2022/09/22 10:14:50;;;;;;;7.95;5.93;;;;;;;21.97;38.72;99371.75;4932412;29;20043;-72
2022/09/22 10:17:27;;;;;;;7.90;5.75;;;;;;;22.23;38.45;99366.66;4932266;29;20046;-72
2022/09/22 10:20:20;;;;;;;7.68;5.90;;;;;;;22.26;38.14;99357.22;4932893;29;20047;-72
2022/09/22 10:22:46;;;;;;;11.55;6.43;;;;;;;21.93;39.36;99360.59;4941188;28;20050;-72
2022/09/22 10:25:23;;;;;;;11.10;7.43;;;;;;;22.22;38.88;99362.28;4935817;28;20043;-73
2022/09/22 10:28:01;;;;;;;10.85;7.18;;;;;;;22.11;39.15;99360.44;4951532;28;20086;-71
2022/09/22 10:30:32;;;;;;;8.88;6.65;;;;;;;22.08;39.44;99350.09;4935466;29;20039;-70
2022/09/22 10:33:16;;;;;;;6.97;5.60;;;;;;;22.25;38.20;99363.72;4951343;28;20051;-71
2022/09/22 10:35:46;;;;;;;7.68;5.90;;;;;;;22.19;38.12;99356.56;4941451;28;20062;-72
2022/09/22 10:38:21;;;;;;;6.80;5.38;;;;;;;22.61;37.61;99358.78;4926405;29;20049;-73
2022/09/22 10:41:03;;;;;;;9.02;6.50;;;;;;;22.68;37.66;99328.84;4957833;28;20501;-72
2022/09/22 10:43:36;;;;;;;9.98;6.70;;;;;;;22.63;38.02;99339.59;4941803;29;20054;-70
2022/09/22 10:46:23;;;;;;;8.63;7.07;;;;;;;22.51;38.39;99347.75;4940627;28;20392;-72
2022/09/22 10:49:11;;;;;;;9.93;7.78;;;;;;;22.38;38.59;99350.72;4941357;28;20077;-72
2022/09/22 10:52:14;;;;;;;11.43;7.43;;;;;;;22.45;38.15;99345.16;4912157;28;20055;-72
2022/09/22 10:55:11;;;;;;;8.35;6.95;;;;;;;22.62;38.04;99351.47;4909652;29;20398;-72
2022/09/22 10:57:46;;;;;;;9.45;6.55;;;;;;;22.75;37.89;99352.00;4943429;28;20048;-72
2022/09/22 11:00:13;;;;;;;8.80;6.50;;;;;;;22.73;37.53;99345.16;4943634;28;20098;-72
2022/09/22 11:03:10;;;;;;;14.05;7.25;;;;;;;23.36;36.94;99342.25;4938824;28;20055;-72
2022/09/22 11:12:18;;;;;;;10.38;6.43;;;;;;;23.32;36.27;99330.22;4923505;28;20382;-73
2022/09/22 11:14:56;;;;;;;11.68;6.25;;;;;;;23.02;37.08;99304.25;4955973;28;20142;-72
2022/09/22 11:17:51;;;;;;;7.90;5.68;;;;;;;22.97;36.86;99325.84;4923063;28;20540;-72
2022/09/22 11:20:43;;;;;;;7.05;5.80;;;;;;;23.35;36.54;99321.59;4939735;28;20393;-74
2022/09/22 11:23:40;;;;;;;11.23;5.88;;;;;;;23.49;36.01;99321.03;4945726;28;20038;-71
2022/09/22 11:26:24;;;;;;;8.18;5.20;;;;;;;23.66;35.70;99316.41;4947931;28;20054;-71
2022/09/22 11:29:43;;;;;;;8.88;6.18;;;;;;;23.51;35.76;99304.50;4909141;28;20057;-72
2022/09/22 11:32:40;;;;;;;9.32;5.90;;;;;;;23.32;36.22;99320.22;4927749;28;20039;-72
2022/09/22 11:35:12;;;;;;;7.90;5.43;;;;;;;22.85;36.77;99316.13;4931700;28;20478;-70
2022/09/22 11:38:01;;;;;;;9.43;6.70;;;;;;;23.04;36.84;99299.44;4914479;28;20558;-70
2022/09/22 11:40:39;;;;;;;9.85;6.80;;;;;;;23.15;36.88;99316.66;4947486;28;20192;-71
2022/09/22 11:43:10;;;;;;;11.57;6.88;;;;;;;22.85;37.28;99310.72;4930465;28;20121;-71
2022/09/22 11:45:58;;;;;;;9.98;7.38;;;;;;;23.02;36.78;99311.56;4965662;28;20794;-69
2022/09/22 11:48:24;;;;;;;9.70;6.82;;;;;;;22.57;37.36;99308.88;4938180;28;20381;-70
2022/09/22 11:51:08;;;;;;;10.25;7.97;;;;;;;22.85;37.10;99300.72;4922621;28;20130;-70
2022/09/22 11:53:58;;;;;;;8.10;6.70;;;;;;;22.64;37.43;99278.94;4906493;28;20466;-70
2022/09/22 11:56:42;;;;;;;11.85;8.00;;;;;;;22.82;37.01;99295.78;4922759;29;20054;-71
2022/09/22 11:59:27;;;;;;;17.25;9.00;;;;;;;22.72;37.35;99283.97;4952462;28;20108;-71
2022/09/22 12:01:54;;;;;;;31.20;13.43;;;;;;;22.61;38.03;99298.38;4920484;29;20094;-70
2022/09/22 12:04:39;;;;;;;16.00;9.25;;;;;;;22.70;37.83;99288.81;4938097;28;20047;-71